createdAt,value
2023-02-22T00:01:07.771Z,46.73
2023-02-22T00:03:36.786Z,46.72
2023-02-22T00:06:06.455Z,46.89
2023-02-22T00:08:37.051Z,46.91
2023-02-22T00:11:08.968Z,46.71
2023-02-22T00:13:38.678Z,46.68
2023-02-22T00:16:07.549Z,46.88
2023-02-22T00:18:36.324Z,46.66
2023-02-22T00:21:10.808Z,46.72
2023-02-22T00:23:46.683Z,46.66
2023-02-22T00:26:19.228Z,46.58
2023-02-22T00:28:51.854Z,46.32
2023-02-22T00:31:21.099Z,46.36
2023-02-22T00:33:51.719Z,46.29
2023-02-22T00:36:20.254Z,46.52
2023-02-22T00:38:49.056Z,46.41
2023-02-22T00:41:17.819Z,46.77
2023-02-22T00:43:49.347Z,46.28
2023-02-22T00:46:17.944Z,46.21
2023-02-22T00:48:47.951Z,46.36
2023-02-22T00:51:16.649Z,46.75
2023-02-22T00:53:45.636Z,46.21
2023-02-22T00:56:14.200Z,46.57
2023-02-22T00:58:42.991Z,46.32
2023-02-22T01:01:11.599Z,46.15
2023-02-22T01:03:41.468Z,46.27
2023-02-22T01:06:10.353Z,46.18
2023-02-22T01:08:39.229Z,46.17
2023-02-22T01:11:07.637Z,46.26
2023-02-22T01:13:36.641Z,46.20
2023-02-22T01:16:08.480Z,46.21
2023-02-22T01:18:37.587Z,46.07
2023-02-22T01:21:06.616Z,46.28
2023-02-22T01:23:37.927Z,46.20
2023-02-22T01:26:06.469Z,46.32
2023-02-22T01:28:35.421Z,46.12
2023-02-22T01:31:04.271Z,46.34
2023-02-22T01:33:34.279Z,46.34
2023-02-22T01:36:03.916Z,46.35
2023-02-22T01:38:32.814Z,46.18
2023-02-22T01:41:01.818Z,46.25
2023-02-22T01:43:32.581Z,46.19
2023-02-22T01:46:27.294Z,46.23
2023-02-22T01:49:02.458Z,46.94
2023-02-22T01:51:38.064Z,46.36
2023-02-22T01:54:26.577Z,46.42
2023-02-22T01:57:20.791Z,46.20
2023-02-22T01:59:54.319Z,46.07
2023-02-22T02:02:25.350Z,46.18
2023-02-22T02:04:56.760Z,46.10
2023-02-22T02:07:25.300Z,46.47
2023-02-22T02:10:00.290Z,46.14
2023-02-22T02:12:31.417Z,46.45
2023-02-22T02:15:25.455Z,46.24
2023-02-22T02:17:55.248Z,46.23
2023-02-22T02:20:52.177Z,46.24
2023-02-22T02:24:02.542Z,46.69
2023-02-22T02:26:59.028Z,46.07
2023-02-22T02:29:44.888Z,46.38
2023-02-22T02:32:41.433Z,46.12
2023-02-22T02:35:38.609Z,46.52
2023-02-22T02:38:20.843Z,46.33
2023-02-22T02:41:23.252Z,46.27
2023-02-22T02:44:16.208Z,46.39
2023-02-22T02:46:57.848Z,46.35
2023-02-22T02:49:46.935Z,46.36
2023-02-22T02:52:16.521Z,46.62
2023-02-22T02:54:46.383Z,46.90
2023-02-22T02:57:16.061Z,46.36
2023-02-22T02:59:44.902Z,46.46
2023-02-22T03:02:51.971Z,46.58
2023-02-22T03:05:50.170Z,46.33
2023-02-22T03:08:43.854Z,46.00
2023-02-22T03:11:31.650Z,46.44
2023-02-22T03:14:42.893Z,46.57
2023-02-22T03:17:30.754Z,46.26
2023-02-22T03:20:05.251Z,47.01
2023-02-22T03:22:44.251Z,46.48
2023-02-22T03:25:22.773Z,46.18
2023-02-22T03:28:02.572Z,46.75
2023-02-22T03:30:51.170Z,46.24
2023-02-22T03:34:01.683Z,46.78
2023-02-22T03:36:44.093Z,46.37
2023-02-22T03:39:17.893Z,46.95
2023-02-22T03:41:51.729Z,46.55
2023-02-22T03:44:26.163Z,46.51
2023-02-22T03:46:56.931Z,46.86
2023-02-22T03:49:51.815Z,46.65
2023-02-22T03:52:23.633Z,46.66
2023-02-22T03:54:54.091Z,46.54
2023-02-22T03:57:32.933Z,46.91
2023-02-22T04:00:10.970Z,46.59
2023-02-22T04:02:42.400Z,47.08
2023-02-22T04:05:15.997Z,47.07
2023-02-22T04:07:45.251Z,46.94
2023-02-22T04:10:16.292Z,46.37
2023-02-22T04:12:45.570Z,46.84
2023-02-22T04:15:20.292Z,46.75
2023-02-22T04:17:52.692Z,46.73
2023-02-22T04:20:25.755Z,46.90
2023-02-22T04:23:00.590Z,46.91
2023-02-22T04:25:30.538Z,47.17
2023-02-22T04:27:59.303Z,46.75
2023-02-22T04:30:39.910Z,46.48
2023-02-22T04:33:13.195Z,47.16
2023-02-22T04:35:42.654Z,46.54
2023-02-22T04:38:11.760Z,46.83
2023-02-22T04:40:42.432Z,46.52
2023-02-22T04:43:11.056Z,46.42
2023-02-22T04:45:39.942Z,46.37
2023-02-22T04:48:09.800Z,46.22
2023-02-22T04:50:39.472Z,46.12
2023-02-22T04:53:08.107Z,45.89
2023-02-22T04:55:39.508Z,45.77
2023-02-22T04:58:09.488Z,45.41
2023-02-22T05:00:39.576Z,45.23
2023-02-22T05:03:09.122Z,45.04
2023-02-22T05:05:37.984Z,45.01
2023-02-22T05:08:06.650Z,44.79
2023-02-22T05:10:35.691Z,44.98
2023-02-22T05:13:04.348Z,44.79
2023-02-22T05:15:33.203Z,44.90
2023-02-22T05:18:01.569Z,44.90
2023-02-22T05:20:34.101Z,45.08
2023-02-22T05:23:03.204Z,44.91
2023-02-22T05:25:32.239Z,45.03
2023-02-22T05:28:07.931Z,44.78
2023-02-22T05:30:39.945Z,44.90
2023-02-22T05:33:09.272Z,45.13
2023-02-22T05:35:38.132Z,45.01
2023-02-22T05:38:06.650Z,45.16
2023-02-22T05:40:35.445Z,45.00
2023-02-22T05:43:03.989Z,45.06
2023-02-22T05:45:32.847Z,45.32
2023-02-22T05:48:01.394Z,45.02
2023-02-22T05:50:30.269Z,45.27
2023-02-22T05:52:58.823Z,45.29
2023-02-22T05:55:27.684Z,45.42
2023-02-22T05:57:56.170Z,45.24
2023-02-22T06:00:30.415Z,45.23
2023-02-22T06:03:08.360Z,45.42
2023-02-22T06:05:37.743Z,45.47
2023-02-22T06:08:07.126Z,45.61
2023-02-22T06:10:36.006Z,45.46
2023-02-22T06:13:05.023Z,45.50
2023-02-22T06:15:33.989Z,45.55
2023-02-22T06:18:02.618Z,45.41
2023-02-22T06:20:31.586Z,45.52
2023-02-22T06:23:00.142Z,45.65
2023-02-22T06:25:33.602Z,45.59
2023-02-22T06:28:02.032Z,45.54
2023-02-22T06:30:30.973Z,45.77
2023-02-22T06:32:59.433Z,45.70
2023-02-22T06:35:28.204Z,45.53
2023-02-22T06:37:56.797Z,45.66
2023-02-22T06:40:29.726Z,45.63
2023-02-22T06:42:58.791Z,45.90
2023-02-22T06:45:27.827Z,45.75
2023-02-22T06:47:56.295Z,46.12
2023-02-22T06:50:29.093Z,46.18
2023-02-22T06:52:58.103Z,46.17
2023-02-22T06:55:29.692Z,46.17
2023-02-22T06:57:58.288Z,46.12
2023-02-22T07:00:28.203Z,46.21
2023-02-22T07:02:57.205Z,46.39
2023-02-22T07:05:26.664Z,46.36
2023-02-22T07:07:56.372Z,46.19
2023-02-22T07:10:28.156Z,46.28
2023-02-22T07:12:56.832Z,46.38
2023-02-22T07:15:28.116Z,46.32
2023-02-22T07:17:56.789Z,46.40
2023-02-22T07:20:27.886Z,46.44
2023-02-22T07:22:56.461Z,46.89
2023-02-22T07:25:25.646Z,46.68
2023-02-22T07:27:54.072Z,46.64
2023-02-22T07:30:25.669Z,46.74
2023-02-22T07:32:55.155Z,46.77
2023-02-22T07:35:50.133Z,46.90
2023-02-22T07:38:19.608Z,46.55
2023-02-22T07:40:48.404Z,46.78
2023-02-22T07:43:25.021Z,46.62
2023-02-22T07:45:56.999Z,46.74
2023-02-22T07:48:27.772Z,46.56
2023-02-22T07:50:56.895Z,46.67
2023-02-22T07:53:31.018Z,46.62
2023-02-22T07:56:05.501Z,46.92
2023-02-22T07:58:34.138Z,47.12
2023-02-22T08:01:03.085Z,47.08
2023-02-22T08:03:36.948Z,46.91
2023-02-22T08:06:07.435Z,46.63
2023-02-22T08:08:35.841Z,46.87
2023-02-22T08:11:05.101Z,47.26
2023-02-22T08:13:33.578Z,46.80
2023-02-22T08:16:02.339Z,47.10
2023-02-22T08:18:30.867Z,46.88
2023-02-22T08:20:59.680Z,46.82
2023-02-22T08:23:28.248Z,46.67
2023-02-22T08:26:03.879Z,46.97
2023-02-22T08:28:32.444Z,46.92
2023-02-22T08:31:01.351Z,46.91
2023-02-22T08:33:29.885Z,46.93
2023-02-22T08:35:58.705Z,46.88
2023-02-22T08:38:30.406Z,46.82
2023-02-22T08:40:59.262Z,46.82
2023-02-22T08:43:29.090Z,47.28
2023-02-22T08:45:58.076Z,46.97
2023-02-22T08:48:26.818Z,47.11
2023-02-22T08:50:56.442Z,46.75
2023-02-22T08:53:24.885Z,47.43
2023-02-22T08:55:53.812Z,46.75
2023-02-22T08:58:22.545Z,47.17
2023-02-22T09:00:51.387Z,46.63
2023-02-22T09:03:19.816Z,47.03
2023-02-22T09:05:48.916Z,46.63
2023-02-22T09:08:17.720Z,46.69
2023-02-22T09:10:46.691Z,46.53
2023-02-22T09:13:15.305Z,46.76
2023-02-22T09:15:44.133Z,47.04
2023-02-22T09:18:14.794Z,46.64
2023-02-22T09:20:43.835Z,46.88
2023-02-22T09:23:12.534Z,46.70
2023-02-22T09:25:41.632Z,46.68
2023-02-22T09:28:10.159Z,46.83
2023-02-22T09:30:39.023Z,46.73
2023-02-22T09:33:16.258Z,46.55
2023-02-22T09:35:50.087Z,46.59
2023-02-22T09:38:23.204Z,46.70
2023-02-22T09:41:35.184Z,46.48
2023-02-22T09:44:48.736Z,46.33
2023-02-22T09:47:32.741Z,46.52
2023-02-22T09:50:05.173Z,46.44
2023-02-22T09:52:40.033Z,46.10
2023-02-22T09:55:17.879Z,46.23
2023-02-22T09:57:46.678Z,46.48
2023-02-22T10:00:24.283Z,45.98
2023-02-22T10:03:29.040Z,45.66
2023-02-22T10:06:12.004Z,46.00
2023-02-22T10:08:40.841Z,45.93
2023-02-22T10:11:28.865Z,45.85
2023-02-22T10:14:43.782Z,45.66
2023-02-22T10:17:45.771Z,45.67
2023-02-22T10:20:51.913Z,45.75
2023-02-22T10:24:17.116Z,45.63
2023-02-22T10:26:47.070Z,45.69
2023-02-22T10:29:32.914Z,45.53
2023-02-22T10:32:05.155Z,45.47
2023-02-22T10:34:48.765Z,45.54
2023-02-22T10:37:26.834Z,45.30
2023-02-22T10:40:17.563Z,45.17
2023-02-22T10:42:47.655Z,44.70
2023-02-22T10:45:30.178Z,44.48
2023-02-22T10:48:09.013Z,44.26
2023-02-22T10:50:41.169Z,44.11
2023-02-22T10:53:10.315Z,43.90
2023-02-22T10:56:17.282Z,43.43
2023-02-22T10:59:07.694Z,43.45
2023-02-22T11:01:38.761Z,42.85
2023-02-22T11:04:17.666Z,42.89
2023-02-22T11:07:10.170Z,42.93
2023-02-22T11:10:03.524Z,42.64
2023-02-22T11:12:41.491Z,42.74
2023-02-22T11:15:19.680Z,42.83
2023-02-22T11:17:50.580Z,42.87
2023-02-22T11:20:34.707Z,42.98
2023-02-22T11:23:04.538Z,42.99
2023-02-22T11:25:42.624Z,43.05
2023-02-22T11:28:31.157Z,43.06
2023-02-22T11:31:15.967Z,43.08
2023-02-22T11:36:40.880Z,43.15
2023-02-22T11:39:34.674Z,43.23
2023-02-22T11:42:27.554Z,43.22
2023-02-22T11:45:25.306Z,43.36
2023-02-22T11:47:56.846Z,43.51
2023-02-22T11:50:52.113Z,43.29
2023-02-22T11:53:38.065Z,43.53
2023-02-22T11:56:46.518Z,43.66
2023-02-22T11:59:36.920Z,43.58
2023-02-22T12:02:30.881Z,43.87
2023-02-22T12:05:18.693Z,43.83
2023-02-22T12:08:19.605Z,44.34
2023-02-22T12:11:19.237Z,44.95
2023-02-22T12:14:15.704Z,45.21
2023-02-22T12:17:14.912Z,45.22
2023-02-22T12:19:51.354Z,45.15
2023-02-22T12:22:36.930Z,45.40
2023-02-22T12:25:16.673Z,45.41
2023-02-22T12:28:24.556Z,45.49
2023-02-22T12:31:23.508Z,45.93
2023-02-22T12:34:29.369Z,45.86
2023-02-22T12:37:15.113Z,45.77
2023-02-22T12:39:56.638Z,46.05
2023-02-22T12:43:13.340Z,45.94
2023-02-22T12:46:11.082Z,45.90
2023-02-22T12:49:15.534Z,46.27
2023-02-22T12:52:21.620Z,46.20
2023-02-22T12:55:16.103Z,46.14
2023-02-22T12:57:54.774Z,46.26
2023-02-22T13:00:37.096Z,45.91
2023-02-22T13:03:40.590Z,46.08
2023-02-22T13:06:38.773Z,46.73
2023-02-22T13:09:28.481Z,46.39
2023-02-22T13:12:23.732Z,46.76
2023-02-22T13:15:09.899Z,46.32
2023-02-22T13:18:04.617Z,46.57
2023-02-22T13:20:45.591Z,46.47
2023-02-22T13:23:49.055Z,46.65
2023-02-22T13:26:33.098Z,46.42
2023-02-22T13:29:22.504Z,46.61
2023-02-22T13:32:18.277Z,46.66
2023-02-22T13:35:16.925Z,46.70
2023-02-22T13:38:21.544Z,46.76
2023-02-22T13:41:08.640Z,46.63
2023-02-22T13:43:53.801Z,46.74
2023-02-22T13:46:47.198Z,46.80
2023-02-22T13:50:00.133Z,46.96
2023-02-22T13:52:31.309Z,46.94
2023-02-22T13:55:11.353Z,46.96
2023-02-22T13:57:49.931Z,46.89
2023-02-22T14:00:25.028Z,46.89
2023-02-22T14:03:34.433Z,46.77
2023-02-22T14:06:05.749Z,47.02
2023-02-22T14:08:34.373Z,47.09
2023-02-22T14:11:12.952Z,46.93
2023-02-22T14:14:01.164Z,46.96
2023-02-22T14:16:31.396Z,47.08
2023-02-22T14:19:06.954Z,46.96
2023-02-22T14:21:36.453Z,46.98
2023-02-22T14:24:15.122Z,47.06
2023-02-22T14:27:03.769Z,47.20
2023-02-22T14:29:32.473Z,47.38
2023-02-22T14:32:11.095Z,47.25
2023-02-22T14:35:00.475Z,47.38
2023-02-22T14:37:34.156Z,47.24
2023-02-22T14:40:22.383Z,47.32
2023-02-22T14:43:02.141Z,47.38
2023-02-22T14:45:34.910Z,47.46
2023-02-22T14:48:43.010Z,47.68
2023-02-22T14:51:26.444Z,47.66
2023-02-22T14:54:21.717Z,47.59
2023-02-22T14:57:15.051Z,47.56
2023-02-22T15:00:20.481Z,47.37
2023-02-22T15:02:52.714Z,47.32
2023-02-22T15:05:22.106Z,47.28
2023-02-22T15:07:55.678Z,47.36
2023-02-22T15:10:30.396Z,47.50
2023-02-22T15:13:11.359Z,47.11
2023-02-22T15:15:48.236Z,47.19
2023-02-22T15:18:46.423Z,46.77
2023-02-22T15:21:24.838Z,46.97
2023-02-22T15:24:02.026Z,47.09
2023-02-22T15:26:52.017Z,46.84
2023-02-22T15:29:41.110Z,47.07
2023-02-22T15:32:34.753Z,46.94
2023-02-22T15:35:27.810Z,47.17
2023-02-22T15:38:02.638Z,46.90
2023-02-22T15:40:33.526Z,46.91
2023-02-22T15:43:05.113Z,46.84
2023-02-22T15:45:33.652Z,46.83
2023-02-22T15:48:03.512Z,46.71
2023-02-22T15:50:34.150Z,46.90
2023-02-22T15:53:06.965Z,46.67
2023-02-22T15:55:40.414Z,46.86
2023-02-22T15:58:31.645Z,46.92
2023-02-22T16:01:06.854Z,46.91
2023-02-22T16:03:45.765Z,46.88
2023-02-22T16:06:39.767Z,46.79
2023-02-22T16:09:26.359Z,46.52
2023-02-22T16:12:20.822Z,46.34
2023-02-22T16:14:52.519Z,46.41
2023-02-22T16:17:41.149Z,46.21
2023-02-22T16:20:12.168Z,46.25
2023-02-22T16:22:41.672Z,45.98
2023-02-22T16:25:19.592Z,45.58
2023-02-22T16:27:58.185Z,45.32
2023-02-22T16:30:36.798Z,45.06
2023-02-22T16:33:16.743Z,44.96
2023-02-22T16:35:52.408Z,44.60
2023-02-22T16:38:21.374Z,44.49
2023-02-22T16:40:54.118Z,44.37
2023-02-22T16:43:33.180Z,44.35
2023-02-22T16:46:02.952Z,43.97
2023-02-22T16:48:32.956Z,43.97
2023-02-22T16:51:15.281Z,43.75
2023-02-22T16:53:45.036Z,43.68
2023-02-22T16:56:16.742Z,43.21
2023-02-22T16:58:45.617Z,43.50
2023-02-22T17:01:14.650Z,43.51
2023-02-22T17:03:43.414Z,43.46
2023-02-22T17:06:12.786Z,43.53
2023-02-22T17:08:41.778Z,43.43
2023-02-22T17:11:12.622Z,44.00
2023-02-22T17:13:59.990Z,43.95
2023-02-22T17:16:29.131Z,43.90
2023-02-22T17:18:57.811Z,44.02
2023-02-22T17:21:27.069Z,43.89
2023-02-22T17:23:55.662Z,43.94
2023-02-22T17:26:26.675Z,43.98
2023-02-22T17:28:55.320Z,44.13
2023-02-22T17:31:26.737Z,44.17
2023-02-22T17:33:56.871Z,44.56
2023-02-22T17:36:25.710Z,44.73
2023-02-22T17:38:54.616Z,44.89
2023-02-22T17:41:23.677Z,44.80
2023-02-22T17:43:54.437Z,44.89
2023-02-22T17:46:25.396Z,45.08
2023-02-22T17:48:56.722Z,44.90
2023-02-22T17:51:26.336Z,44.87
2023-02-22T17:53:54.977Z,44.68
2023-02-22T17:56:23.985Z,44.67
2023-02-22T17:58:54.634Z,44.25
2023-02-22T18:01:32.104Z,44.13
2023-02-22T18:04:02.004Z,44.22
2023-02-22T18:06:32.928Z,44.28
2023-02-22T18:09:01.712Z,44.10
2023-02-22T18:11:32.810Z,44.20
2023-02-22T18:14:01.280Z,44.05
2023-02-22T18:16:30.218Z,44.10
2023-02-22T18:19:01.506Z,44.23
2023-02-22T18:21:30.465Z,44.41
2023-02-22T18:23:58.945Z,44.46
2023-02-22T18:26:28.210Z,44.34
2023-02-22T18:28:57.064Z,44.33
2023-02-22T18:31:25.933Z,44.58
2023-02-22T18:33:54.529Z,44.54
2023-02-22T18:36:24.972Z,44.54
2023-02-22T18:38:54.591Z,44.50
2023-02-22T18:41:27.376Z,44.68
2023-02-22T18:43:58.162Z,44.58
2023-02-22T18:46:27.958Z,44.63
2023-02-22T18:48:57.123Z,44.56
2023-02-22T18:51:26.561Z,44.78
2023-02-22T18:54:00.846Z,44.56
2023-02-22T18:56:30.343Z,44.90
2023-02-22T18:59:01.618Z,44.69
2023-02-22T19:01:31.602Z,44.61
2023-02-22T19:04:01.294Z,44.93
2023-02-22T19:06:30.223Z,45.07
2023-02-22T19:09:01.530Z,44.94
2023-02-22T19:11:30.499Z,45.27
2023-02-22T19:13:59.120Z,45.24
2023-02-22T19:16:28.344Z,45.08
2023-02-22T19:18:57.809Z,45.23
2023-02-22T19:21:29.123Z,45.36
2023-02-22T19:24:02.417Z,45.37
2023-02-22T19:26:32.213Z,45.17
2023-02-22T19:29:05.136Z,45.51
2023-02-22T19:31:34.339Z,45.46
2023-02-22T19:34:09.058Z,45.43
2023-02-22T19:36:39.894Z,45.63
2023-02-22T19:39:08.972Z,45.79
2023-02-22T19:41:38.475Z,45.55
2023-02-22T19:44:07.259Z,45.46
2023-02-22T19:46:36.794Z,45.45
2023-02-22T19:49:05.842Z,45.52
2023-02-22T19:51:34.774Z,45.28
2023-02-22T19:54:06.759Z,45.19
2023-02-22T19:56:35.775Z,45.15
2023-02-22T19:59:09.675Z,44.69
2023-02-22T20:01:38.628Z,44.51
2023-02-22T20:04:09.632Z,44.55
2023-02-22T20:06:41.873Z,44.51
2023-02-22T20:09:18.203Z,44.51
2023-02-22T20:11:47.962Z,44.43
2023-02-22T20:14:23.628Z,44.57
2023-02-22T20:16:53.742Z,44.56
2023-02-22T20:19:26.924Z,44.64
2023-02-22T20:21:56.484Z,44.56
2023-02-22T20:24:25.700Z,44.50
2023-02-22T20:26:58.390Z,44.43
2023-02-22T20:29:31.570Z,44.77
2023-02-22T20:32:02.208Z,44.70
2023-02-22T20:34:33.315Z,44.73
2023-02-22T20:37:03.865Z,44.98
2023-02-22T20:39:36.260Z,45.13
2023-02-22T20:42:08.104Z,45.52
2023-02-22T20:44:38.374Z,45.46
2023-02-22T20:47:08.685Z,45.54
2023-02-22T20:49:38.706Z,45.83
2023-02-22T20:52:09.274Z,45.97
2023-02-22T20:54:39.389Z,45.89
2023-02-22T20:57:09.356Z,46.18
2023-02-22T20:59:40.935Z,46.40
2023-02-22T21:02:11.809Z,46.36
2023-02-22T21:04:41.736Z,46.57
2023-02-22T21:07:12.325Z,46.80
2023-02-22T21:09:42.400Z,46.87
2023-02-22T21:12:14.322Z,46.80
2023-02-22T21:14:44.624Z,46.85
2023-02-22T21:17:13.572Z,46.73
2023-02-22T21:19:42.346Z,46.99
2023-02-22T21:22:11.118Z,46.96
2023-02-22T21:24:39.619Z,47.14
2023-02-22T21:27:08.916Z,47.01
2023-02-22T21:29:37.617Z,47.38
2023-02-22T21:32:08.857Z,47.44
2023-02-22T21:34:37.787Z,47.42
2023-02-22T21:37:08.460Z,47.41
2023-02-22T21:39:36.896Z,47.45
2023-02-22T21:42:07.414Z,47.19
2023-02-22T21:44:35.909Z,47.39
2023-02-22T21:47:04.874Z,47.21
2023-02-22T21:49:33.448Z,47.42
2023-02-22T21:52:02.596Z,47.20
2023-02-22T21:54:31.122Z,47.23
2023-02-22T21:57:00.168Z,47.11
2023-02-22T21:59:28.689Z,47.20
2023-02-22T22:01:57.445Z,47.31
2023-02-22T22:04:31.154Z,47.08
2023-02-22T22:07:01.475Z,47.30
2023-02-22T22:09:33.475Z,47.13
2023-02-22T22:12:05.549Z,47.13
2023-02-22T22:14:34.732Z,47.38
2023-02-22T22:17:05.865Z,47.16
2023-02-22T22:19:42.101Z,47.21
2023-02-22T22:22:10.867Z,47.09
2023-02-22T22:24:41.854Z,47.28
2023-02-22T22:27:13.027Z,47.21
2023-02-22T22:29:41.542Z,47.17
2023-02-22T22:32:10.804Z,47.06
2023-02-22T22:34:39.469Z,47.00
2023-02-22T22:37:09.222Z,46.88
2023-02-22T22:39:38.972Z,46.97
2023-02-22T22:42:09.479Z,46.87
2023-02-22T22:44:42.521Z,46.83
2023-02-22T22:47:14.555Z,47.02
2023-02-22T22:49:43.074Z,47.18
2023-02-22T22:52:16.631Z,46.76
2023-02-22T22:54:45.043Z,47.03
2023-02-22T22:57:14.963Z,46.92
2023-02-22T22:59:43.415Z,46.92
2023-02-22T23:02:12.198Z,46.78
2023-02-22T23:04:40.669Z,46.92
2023-02-22T23:07:09.658Z,46.73
2023-02-22T23:09:39.939Z,47.07
2023-02-22T23:12:09.238Z,46.81
2023-02-22T23:14:44.219Z,46.90
2023-02-22T23:17:31.629Z,46.76
2023-02-22T23:20:00.195Z,46.83
2023-02-22T23:22:28.933Z,47.00
2023-02-22T23:25:00.054Z,46.89
2023-02-22T23:27:28.921Z,46.79
2023-02-22T23:29:57.384Z,46.77
2023-02-22T23:32:29.504Z,46.78
2023-02-22T23:34:57.844Z,46.85
2023-02-22T23:37:26.542Z,46.83
2023-02-22T23:39:54.865Z,46.81
2023-02-22T23:42:23.531Z,46.83
2023-02-22T23:44:53.555Z,46.76
2023-02-22T23:47:22.318Z,46.81
2023-02-22T23:49:50.757Z,46.80
2023-02-22T23:52:24.626Z,46.63
2023-02-22T23:54:54.252Z,46.88
2023-02-22T23:57:24.689Z,46.64
2023-02-22T23:59:53.253Z,46.73
